sensor_id;sensor_type;location;lat;lon;timestamp;P1;durP1;ratioP1;P2;durP2;ratioP2
60964;SDS011;46834;51.100;6.886;2022-11-20T00:01:27;11.83;;;8.33;;
60964;SDS011;46834;51.100;6.886;2022-11-20T00:03:54;12.90;;;8.97;;
60964;SDS011;46834;51.100;6.886;2022-11-20T00:06:22;11.97;;;8.33;;
60964;SDS011;46834;51.100;6.886;2022-11-20T00:08:49;10.27;;;7.63;;
60964;SDS011;46834;51.100;6.886;2022-11-20T00:11:16;11.33;;;8.30;;
60964;SDS011;46834;51.100;6.886;2022-11-20T00:13:45;11.90;;;8.27;;
60964;SDS011;46834;51.100;6.886;2022-11-20T00:16:15;11.97;;;8.40;;
60964;SDS011;46834;51.100;6.886;2022-11-20T00:18:44;12.70;;;8.80;;
60964;SDS011;46834;51.100;6.886;2022-11-20T00:21:15;14.10;;;9.20;;
60964;SDS011;46834;51.100;6.886;2022-11-20T00:23:47;13.47;;;8.53;;
60964;SDS011;46834;51.100;6.886;2022-11-20T00:26:15;12.10;;;8.57;;
60964;SDS011;46834;51.100;6.886;2022-11-20T00:28:44;11.13;;;7.87;;
60964;SDS011;46834;51.100;6.886;2022-11-20T00:31:15;13.10;;;8.27;;
60964;SDS011;46834;51.100;6.886;2022-11-20T00:33:42;12.57;;;8.77;;
60964;SDS011;46834;51.100;6.886;2022-11-20T00:36:10;12.50;;;8.20;;
60964;SDS011;46834;51.100;6.886;2022-11-20T00:38:41;13.20;;;8.97;;
60964;SDS011;46834;51.100;6.886;2022-11-20T00:41:08;13.23;;;8.57;;
60964;SDS011;46834;51.100;6.886;2022-11-20T00:43:37;12.37;;;8.80;;
60964;SDS011;46834;51.100;6.886;2022-11-20T00:48:37;11.33;;;8.53;;
60964;SDS011;46834;51.100;6.886;2022-11-20T00:51:02;10.90;;;8.20;;
60964;SDS011;46834;51.100;6.886;2022-11-20T00:53:29;13.13;;;8.70;;
60964;SDS011;46834;51.100;6.886;2022-11-20T00:55:59;14.43;;;9.13;;
60964;SDS011;46834;51.100;6.886;2022-11-20T00:58:31;12.73;;;8.90;;
60964;SDS011;46834;51.100;6.886;2022-11-20T01:01:03;12.27;;;8.73;;
60964;SDS011;46834;51.100;6.886;2022-11-20T01:03:45;11.63;;;7.90;;
60964;SDS011;46834;51.100;6.886;2022-11-20T01:06:19;9.97;;;7.70;;
60964;SDS011;46834;51.100;6.886;2022-11-20T01:08:52;11.43;;;8.03;;
60964;SDS011;46834;51.100;6.886;2022-11-20T01:11:22;11.90;;;8.43;;
60964;SDS011;46834;51.100;6.886;2022-11-20T01:13:52;12.27;;;8.23;;
60964;SDS011;46834;51.100;6.886;2022-11-20T01:16:23;11.60;;;8.00;;
60964;SDS011;46834;51.100;6.886;2022-11-20T01:18:57;9.77;;;7.63;;
60964;SDS011;46834;51.100;6.886;2022-11-20T01:21:27;11.37;;;7.50;;
60964;SDS011;46834;51.100;6.886;2022-11-20T01:23:58;12.27;;;7.83;;
60964;SDS011;46834;51.100;6.886;2022-11-20T01:26:28;10.17;;;7.70;;
60964;SDS011;46834;51.100;6.886;2022-11-20T01:28:57;11.17;;;8.57;;
60964;SDS011;46834;51.100;6.886;2022-11-20T01:31:25;11.23;;;8.07;;
60964;SDS011;46834;51.100;6.886;2022-11-20T01:33:58;13.63;;;7.97;;
60964;SDS011;46834;51.100;6.886;2022-11-20T01:36:28;10.83;;;7.70;;
60964;SDS011;46834;51.100;6.886;2022-11-20T01:38:57;12.67;;;8.33;;
60964;SDS011;46834;51.100;6.886;2022-11-20T01:41:27;13.30;;;8.73;;
60964;SDS011;46834;51.100;6.886;2022-11-20T01:44:14;9.37;;;7.20;;
60964;SDS011;46834;51.100;6.886;2022-11-20T01:49:22;11.03;;;8.20;;
60964;SDS011;46834;51.100;6.886;2022-11-20T01:52:07;11.10;;;8.10;;
60964;SDS011;46834;51.100;6.886;2022-11-20T01:55:08;10.80;;;7.37;;
60964;SDS011;46834;51.100;6.886;2022-11-20T01:57:40;12.43;;;8.07;;
60964;SDS011;46834;51.100;6.886;2022-11-20T02:00:08;13.87;;;7.83;;
60964;SDS011;46834;51.100;6.886;2022-11-20T02:02:37;10.77;;;8.00;;
60964;SDS011;46834;51.100;6.886;2022-11-20T02:05:10;11.13;;;7.60;;
60964;SDS011;46834;51.100;6.886;2022-11-20T02:08:02;10.47;;;7.53;;
60964;SDS011;46834;51.100;6.886;2022-11-20T02:10:30;9.53;;;7.50;;
60964;SDS011;46834;51.100;6.886;2022-11-20T02:12:56;11.80;;;8.00;;
60964;SDS011;46834;51.100;6.886;2022-11-20T02:15:42;11.07;;;8.07;;
60964;SDS011;46834;51.100;6.886;2022-11-20T02:18:09;12.63;;;8.10;;
60964;SDS011;46834;51.100;6.886;2022-11-20T02:20:36;11.60;;;8.33;;
60964;SDS011;46834;51.100;6.886;2022-11-20T02:23:08;9.77;;;7.60;;
60964;SDS011;46834;51.100;6.886;2022-11-20T02:25:58;9.90;;;7.30;;
60964;SDS011;46834;51.100;6.886;2022-11-20T02:28:27;10.83;;;7.50;;
60964;SDS011;46834;51.100;6.886;2022-11-20T02:30:52;11.87;;;8.10;;
60964;SDS011;46834;51.100;6.886;2022-11-20T02:33:18;11.80;;;7.87;;
60964;SDS011;46834;51.100;6.886;2022-11-20T02:35:47;11.10;;;7.97;;
60964;SDS011;46834;51.100;6.886;2022-11-20T02:38:13;10.70;;;7.60;;
60964;SDS011;46834;51.100;6.886;2022-11-20T02:40:40;10.27;;;7.33;;
60964;SDS011;46834;51.100;6.886;2022-11-20T02:43:06;11.70;;;7.97;;
60964;SDS011;46834;51.100;6.886;2022-11-20T02:45:32;13.90;;;8.30;;
60964;SDS011;46834;51.100;6.886;2022-11-20T02:47:58;11.97;;;8.30;;
60964;SDS011;46834;51.100;6.886;2022-11-20T02:50:24;11.80;;;8.03;;
60964;SDS011;46834;51.100;6.886;2022-11-20T02:52:50;10.20;;;7.27;;
60964;SDS011;46834;51.100;6.886;2022-11-20T02:55:15;8.43;;;6.73;;
60964;SDS011;46834;51.100;6.886;2022-11-20T02:57:41;11.00;;;7.80;;
60964;SDS011;46834;51.100;6.886;2022-11-20T03:00:07;11.17;;;7.93;;
60964;SDS011;46834;51.100;6.886;2022-11-20T03:02:34;10.77;;;7.57;;
60964;SDS011;46834;51.100;6.886;2022-11-20T03:04:59;10.53;;;7.33;;
60964;SDS011;46834;51.100;6.886;2022-11-20T03:07:25;11.33;;;7.90;;
60964;SDS011;46834;51.100;6.886;2022-11-20T03:09:51;11.77;;;7.60;;
60964;SDS011;46834;51.100;6.886;2022-11-20T03:12:17;10.93;;;7.83;;
60964;SDS011;46834;51.100;6.886;2022-11-20T03:14:42;12.37;;;8.37;;
60964;SDS011;46834;51.100;6.886;2022-11-20T03:17:08;11.80;;;7.90;;
60964;SDS011;46834;51.100;6.886;2022-11-20T03:19:34;8.87;;;7.23;;
60964;SDS011;46834;51.100;6.886;2022-11-20T03:21:59;13.27;;;8.30;;
60964;SDS011;46834;51.100;6.886;2022-11-20T03:24:26;11.40;;;8.20;;
60964;SDS011;46834;51.100;6.886;2022-11-20T03:26:52;10.60;;;7.73;;
60964;SDS011;46834;51.100;6.886;2022-11-20T03:29:17;10.93;;;7.93;;
60964;SDS011;46834;51.100;6.886;2022-11-20T03:31:43;11.77;;;7.17;;
60964;SDS011;46834;51.100;6.886;2022-11-20T03:34:10;11.37;;;7.47;;
60964;SDS011;46834;51.100;6.886;2022-11-20T03:36:37;11.37;;;7.47;;
60964;SDS011;46834;51.100;6.886;2022-11-20T03:39:07;11.53;;;8.10;;
60964;SDS011;46834;51.100;6.886;2022-11-20T03:41:41;10.00;;;7.50;;
60964;SDS011;46834;51.100;6.886;2022-11-20T03:44:08;9.60;;;7.20;;
60964;SDS011;46834;51.100;6.886;2022-11-20T03:46:36;11.23;;;7.47;;
60964;SDS011;46834;51.100;6.886;2022-11-20T03:49:02;10.63;;;7.77;;
60964;SDS011;46834;51.100;6.886;2022-11-20T03:51:30;10.07;;;7.37;;
60964;SDS011;46834;51.100;6.886;2022-11-20T03:53:59;11.30;;;7.57;;
60964;SDS011;46834;51.100;6.886;2022-11-20T03:56:29;10.67;;;7.47;;
60964;SDS011;46834;51.100;6.886;2022-11-20T03:58:58;10.10;;;7.13;;
60964;SDS011;46834;51.100;6.886;2022-11-20T04:01:25;11.53;;;7.80;;
60964;SDS011;46834;51.100;6.886;2022-11-20T04:03:54;10.73;;;7.63;;
60964;SDS011;46834;51.100;6.886;2022-11-20T04:06:23;11.07;;;7.03;;
60964;SDS011;46834;51.100;6.886;2022-11-20T04:08:51;12.27;;;7.07;;
60964;SDS011;46834;51.100;6.886;2022-11-20T04:11:21;11.40;;;7.73;;
60964;SDS011;46834;51.100;6.886;2022-11-20T04:13:50;10.23;;;7.30;;
60964;SDS011;46834;51.100;6.886;2022-11-20T04:16:19;10.07;;;7.20;;
60964;SDS011;46834;51.100;6.886;2022-11-20T04:18:46;12.00;;;7.33;;
60964;SDS011;46834;51.100;6.886;2022-11-20T04:21:15;9.30;;;6.67;;
60964;SDS011;46834;51.100;6.886;2022-11-20T04:23:41;9.77;;;7.10;;
60964;SDS011;46834;51.100;6.886;2022-11-20T04:26:08;10.03;;;7.57;;
60964;SDS011;46834;51.100;6.886;2022-11-20T04:28:36;11.13;;;7.43;;
60964;SDS011;46834;51.100;6.886;2022-11-20T04:31:10;11.47;;;7.83;;
60964;SDS011;46834;51.100;6.886;2022-11-20T04:33:39;10.47;;;7.53;;
60964;SDS011;46834;51.100;6.886;2022-11-20T04:38:40;13.30;;;8.30;;
60964;SDS011;46834;51.100;6.886;2022-11-20T04:41:13;11.20;;;7.93;;
60964;SDS011;46834;51.100;6.886;2022-11-20T04:43:45;9.37;;;6.73;;
60964;SDS011;46834;51.100;6.886;2022-11-20T04:46:16;10.60;;;7.47;;
60964;SDS011;46834;51.100;6.886;2022-11-20T04:48:43;10.03;;;7.47;;
60964;SDS011;46834;51.100;6.886;2022-11-20T04:51:10;11.43;;;7.53;;
60964;SDS011;46834;51.100;6.886;2022-11-20T04:53:36;9.57;;;7.13;;
60964;SDS011;46834;51.100;6.886;2022-11-20T04:56:02;11.30;;;8.20;;
60964;SDS011;46834;51.100;6.886;2022-11-20T04:58:31;14.20;;;8.13;;
60964;SDS011;46834;51.100;6.886;2022-11-20T05:01:05;10.90;;;7.80;;
60964;SDS011;46834;51.100;6.886;2022-11-20T05:03:46;12.77;;;7.87;;
60964;SDS011;46834;51.100;6.886;2022-11-20T05:06:12;10.97;;;7.70;;
60964;SDS011;46834;51.100;6.886;2022-11-20T05:08:40;11.90;;;8.10;;
60964;SDS011;46834;51.100;6.886;2022-11-20T05:11:08;11.00;;;7.60;;
60964;SDS011;46834;51.100;6.886;2022-11-20T05:13:39;10.63;;;8.10;;
60964;SDS011;46834;51.100;6.886;2022-11-20T05:16:09;14.23;;;8.43;;
60964;SDS011;46834;51.100;6.886;2022-11-20T05:18:38;12.10;;;7.53;;
60964;SDS011;46834;51.100;6.886;2022-11-20T05:21:05;10.83;;;7.67;;
60964;SDS011;46834;51.100;6.886;2022-11-20T05:23:33;11.00;;;7.73;;
60964;SDS011;46834;51.100;6.886;2022-11-20T05:26:00;10.80;;;7.87;;
60964;SDS011;46834;51.100;6.886;2022-11-20T05:28:27;11.97;;;7.77;;
60964;SDS011;46834;51.100;6.886;2022-11-20T05:30:55;10.53;;;7.80;;
60964;SDS011;46834;51.100;6.886;2022-11-20T05:33:29;11.90;;;8.47;;
60964;SDS011;46834;51.100;6.886;2022-11-20T05:35:57;11.87;;;7.87;;
60964;SDS011;46834;51.100;6.886;2022-11-20T05:38:23;12.33;;;8.10;;
60964;SDS011;46834;51.100;6.886;2022-11-20T05:40:49;11.77;;;8.13;;
60964;SDS011;46834;51.100;6.886;2022-11-20T05:43:14;12.73;;;8.30;;
60964;SDS011;46834;51.100;6.886;2022-11-20T05:45:40;12.70;;;8.40;;
60964;SDS011;46834;51.100;6.886;2022-11-20T05:48:06;12.47;;;8.07;;
60964;SDS011;46834;51.100;6.886;2022-11-20T05:50:31;11.97;;;8.23;;
60964;SDS011;46834;51.100;6.886;2022-11-20T05:53:00;12.20;;;8.27;;
60964;SDS011;46834;51.100;6.886;2022-11-20T05:55:26;10.33;;;7.60;;
60964;SDS011;46834;51.100;6.886;2022-11-20T05:57:53;12.60;;;8.30;;
60964;SDS011;46834;51.100;6.886;2022-11-20T06:00:19;11.90;;;8.13;;
60964;SDS011;46834;51.100;6.886;2022-11-20T06:02:46;9.83;;;7.37;;
60964;SDS011;46834;51.100;6.886;2022-11-20T06:05:11;10.80;;;7.73;;
60964;SDS011;46834;51.100;6.886;2022-11-20T06:07:37;13.97;;;8.37;;
60964;SDS011;46834;51.100;6.886;2022-11-20T06:10:03;13.40;;;8.90;;
60964;SDS011;46834;51.100;6.886;2022-11-20T06:12:30;11.43;;;8.13;;
60964;SDS011;46834;51.100;6.886;2022-11-20T06:14:57;11.37;;;8.00;;
60964;SDS011;46834;51.100;6.886;2022-11-20T06:17:24;10.60;;;7.70;;
60964;SDS011;46834;51.100;6.886;2022-11-20T06:19:49;11.10;;;7.97;;
60964;SDS011;46834;51.100;6.886;2022-11-20T06:22:15;11.73;;;7.70;;
60964;SDS011;46834;51.100;6.886;2022-11-20T06:24:41;13.43;;;9.03;;
60964;SDS011;46834;51.100;6.886;2022-11-20T06:27:06;11.73;;;8.10;;
60964;SDS011;46834;51.100;6.886;2022-11-20T06:29:32;12.87;;;8.70;;
60964;SDS011;46834;51.100;6.886;2022-11-20T06:31:57;11.07;;;7.70;;
60964;SDS011;46834;51.100;6.886;2022-11-20T06:34:23;14.43;;;9.57;;
60964;SDS011;46834;51.100;6.886;2022-11-20T06:36:49;13.90;;;9.20;;
60964;SDS011;46834;51.100;6.886;2022-11-20T06:39:14;13.50;;;8.27;;
60964;SDS011;46834;51.100;6.886;2022-11-20T06:41:40;11.70;;;7.80;;
60964;SDS011;46834;51.100;6.886;2022-11-20T06:44:05;12.47;;;8.47;;
60964;SDS011;46834;51.100;6.886;2022-11-20T06:46:31;12.67;;;8.37;;
60964;SDS011;46834;51.100;6.886;2022-11-20T06:48:57;11.70;;;8.03;;
60964;SDS011;46834;51.100;6.886;2022-11-20T06:51:23;12.03;;;8.70;;
60964;SDS011;46834;51.100;6.886;2022-11-20T06:53:49;10.77;;;7.73;;
60964;SDS011;46834;51.100;6.886;2022-11-20T06:56:15;10.93;;;7.73;;
60964;SDS011;46834;51.100;6.886;2022-11-20T06:58:40;10.93;;;7.57;;
60964;SDS011;46834;51.100;6.886;2022-11-20T07:01:07;11.13;;;7.90;;
60964;SDS011;46834;51.100;6.886;2022-11-20T07:03:36;11.90;;;7.87;;
60964;SDS011;46834;51.100;6.886;2022-11-20T07:06:03;12.53;;;8.03;;
60964;SDS011;46834;51.100;6.886;2022-11-20T07:08:29;11.90;;;8.10;;
60964;SDS011;46834;51.100;6.886;2022-11-20T07:10:59;10.70;;;7.90;;
60964;SDS011;46834;51.100;6.886;2022-11-20T07:13:28;11.33;;;7.70;;
60964;SDS011;46834;51.100;6.886;2022-11-20T07:15:54;9.83;;;7.00;;
60964;SDS011;46834;51.100;6.886;2022-11-20T07:18:20;11.53;;;7.67;;
60964;SDS011;46834;51.100;6.886;2022-11-20T07:20:46;12.13;;;7.77;;
60964;SDS011;46834;51.100;6.886;2022-11-20T07:23:12;11.07;;;7.83;;
60964;SDS011;46834;51.100;6.886;2022-11-20T07:25:37;11.07;;;7.03;;
60964;SDS011;46834;51.100;6.886;2022-11-20T07:28:03;11.10;;;7.73;;
60964;SDS011;46834;51.100;6.886;2022-11-20T07:30:29;10.63;;;7.83;;
60964;SDS011;46834;51.100;6.886;2022-11-20T07:32:56;12.17;;;7.93;;
60964;SDS011;46834;51.100;6.886;2022-11-20T07:35:22;12.17;;;8.77;;
60964;SDS011;46834;51.100;6.886;2022-11-20T07:37:49;11.17;;;7.87;;
60964;SDS011;46834;51.100;6.886;2022-11-20T07:40:15;12.37;;;8.20;;
60964;SDS011;46834;51.100;6.886;2022-11-20T07:42:52;11.50;;;8.47;;
60964;SDS011;46834;51.100;6.886;2022-11-20T07:45:20;12.73;;;8.53;;
60964;SDS011;46834;51.100;6.886;2022-11-20T07:47:48;11.47;;;8.13;;
60964;SDS011;46834;51.100;6.886;2022-11-20T07:50:14;11.47;;;7.90;;
60964;SDS011;46834;51.100;6.886;2022-11-20T07:52:41;11.23;;;7.77;;
60964;SDS011;46834;51.100;6.886;2022-11-20T07:55:07;10.67;;;7.43;;
60964;SDS011;46834;51.100;6.886;2022-11-20T07:57:34;14.07;;;8.57;;
60964;SDS011;46834;51.100;6.886;2022-11-20T08:00:00;11.90;;;8.73;;
60964;SDS011;46834;51.100;6.886;2022-11-20T08:02:26;14.53;;;9.93;;
60964;SDS011;46834;51.100;6.886;2022-11-20T08:04:52;13.33;;;9.30;;
60964;SDS011;46834;51.100;6.886;2022-11-20T08:07:17;12.60;;;8.33;;
60964;SDS011;46834;51.100;6.886;2022-11-20T08:09:43;11.60;;;8.23;;
60964;SDS011;46834;51.100;6.886;2022-11-20T08:12:10;12.77;;;8.30;;
60964;SDS011;46834;51.100;6.886;2022-11-20T08:15:03;13.43;;;7.93;;
60964;SDS011;46834;51.100;6.886;2022-11-20T08:17:30;11.13;;;7.53;;
60964;SDS011;46834;51.100;6.886;2022-11-20T08:19:56;10.93;;;8.03;;
60964;SDS011;46834;51.100;6.886;2022-11-20T08:22:22;10.53;;;7.80;;
60964;SDS011;46834;51.100;6.886;2022-11-20T08:24:48;11.97;;;7.80;;
60964;SDS011;46834;51.100;6.886;2022-11-20T08:27:14;13.10;;;8.47;;
60964;SDS011;46834;51.100;6.886;2022-11-20T08:29:39;12.93;;;8.13;;
60964;SDS011;46834;51.100;6.886;2022-11-20T08:32:05;11.60;;;8.23;;
60964;SDS011;46834;51.100;6.886;2022-11-20T08:34:31;10.87;;;7.57;;
60964;SDS011;46834;51.100;6.886;2022-11-20T08:36:56;12.97;;;7.97;;
60964;SDS011;46834;51.100;6.886;2022-11-20T08:39:22;10.83;;;7.77;;
60964;SDS011;46834;51.100;6.886;2022-11-20T08:41:47;10.67;;;7.67;;
60964;SDS011;46834;51.100;6.886;2022-11-20T08:44:13;11.90;;;8.23;;
60964;SDS011;46834;51.100;6.886;2022-11-20T08:46:40;12.37;;;7.97;;
60964;SDS011;46834;51.100;6.886;2022-11-20T08:49:09;11.13;;;7.90;;
60964;SDS011;46834;51.100;6.886;2022-11-20T08:51:37;12.30;;;7.80;;
60964;SDS011;46834;51.100;6.886;2022-11-20T08:54:03;12.30;;;7.80;;
60964;SDS011;46834;51.100;6.886;2022-11-20T08:56:30;13.47;;;8.63;;
60964;SDS011;46834;51.100;6.886;2022-11-20T08:58:57;12.23;;;8.33;;
60964;SDS011;46834;51.100;6.886;2022-11-20T09:01:26;11.90;;;8.07;;
60964;SDS011;46834;51.100;6.886;2022-11-20T09:03:57;14.63;;;9.03;;
60964;SDS011;46834;51.100;6.886;2022-11-20T09:06:24;11.47;;;7.90;;
60964;SDS011;46834;51.100;6.886;2022-11-20T09:08:53;12.27;;;8.40;;
60964;SDS011;46834;51.100;6.886;2022-11-20T09:11:20;12.13;;;8.70;;
60964;SDS011;46834;51.100;6.886;2022-11-20T09:13:46;10.50;;;7.87;;
60964;SDS011;46834;51.100;6.886;2022-11-20T09:16:12;12.57;;;8.43;;
60964;SDS011;46834;51.100;6.886;2022-11-20T09:18:38;13.10;;;8.60;;
60964;SDS011;46834;51.100;6.886;2022-11-20T09:21:04;11.60;;;8.33;;
60964;SDS011;46834;51.100;6.886;2022-11-20T09:23:35;12.20;;;8.40;;
60964;SDS011;46834;51.100;6.886;2022-11-20T09:26:06;13.17;;;8.53;;
60964;SDS011;46834;51.100;6.886;2022-11-20T09:28:35;14.43;;;8.90;;
60964;SDS011;46834;51.100;6.886;2022-11-20T09:31:08;12.57;;;8.60;;
60964;SDS011;46834;51.100;6.886;2022-11-20T09:33:46;12.83;;;7.90;;
60964;SDS011;46834;51.100;6.886;2022-11-20T09:36:12;12.17;;;8.17;;
60964;SDS011;46834;51.100;6.886;2022-11-20T09:38:37;12.70;;;7.97;;
60964;SDS011;46834;51.100;6.886;2022-11-20T09:41:04;12.80;;;8.30;;
60964;SDS011;46834;51.100;6.886;2022-11-20T09:43:49;12.37;;;8.43;;
60964;SDS011;46834;51.100;6.886;2022-11-20T09:46:49;12.57;;;8.23;;
60964;SDS011;46834;51.100;6.886;2022-11-20T09:49:29;12.00;;;8.50;;
60964;SDS011;46834;51.100;6.886;2022-11-20T09:55:07;11.53;;;7.70;;
60964;SDS011;46834;51.100;6.886;2022-11-20T09:57:38;12.23;;;8.57;;
60964;SDS011;46834;51.100;6.886;2022-11-20T10:00:10;11.73;;;8.00;;
60964;SDS011;46834;51.100;6.886;2022-11-20T10:02:43;11.50;;;7.67;;
60964;SDS011;46834;51.100;6.886;2022-11-20T10:05:40;11.90;;;8.30;;
60964;SDS011;46834;51.100;6.886;2022-11-20T10:08:19;11.70;;;7.90;;
60964;SDS011;46834;51.100;6.886;2022-11-20T10:16:32;14.57;;;9.03;;
60964;SDS011;46834;51.100;6.886;2022-11-20T10:25:16;12.53;;;8.60;;
60964;SDS011;46834;51.100;6.886;2022-11-20T10:30:26;14.63;;;8.53;;
60964;SDS011;46834;51.100;6.886;2022-11-20T10:32:56;12.00;;;8.83;;
60964;SDS011;46834;51.100;6.886;2022-11-20T10:35:35;12.37;;;8.30;;
60964;SDS011;46834;51.100;6.886;2022-11-20T10:38:11;13.37;;;8.73;;
60964;SDS011;46834;51.100;6.886;2022-11-20T10:40:56;11.27;;;7.47;;
60964;SDS011;46834;51.100;6.886;2022-11-20T10:43:46;13.00;;;9.13;;
60964;SDS011;46834;51.100;6.886;2022-11-20T10:46:15;12.23;;;8.47;;
60964;SDS011;46834;51.100;6.886;2022-11-20T10:48:45;13.20;;;8.87;;
60964;SDS011;46834;51.100;6.886;2022-11-20T10:56:50;12.90;;;7.50;;
60964;SDS011;46834;51.100;6.886;2022-11-20T10:59:27;11.70;;;6.87;;
60964;SDS011;46834;51.100;6.886;2022-11-20T11:02:14;12.37;;;7.80;;
60964;SDS011;46834;51.100;6.886;2022-11-20T11:04:49;13.13;;;8.37;;
60964;SDS011;46834;51.100;6.886;2022-11-20T11:07:20;13.73;;;7.93;;
60964;SDS011;46834;51.100;6.886;2022-11-20T11:10:14;12.67;;;8.13;;
60964;SDS011;46834;51.100;6.886;2022-11-20T11:12:47;12.30;;;8.47;;
60964;SDS011;46834;51.100;6.886;2022-11-20T11:15:15;15.70;;;9.27;;
60964;SDS011;46834;51.100;6.886;2022-11-20T11:18:04;11.67;;;8.27;;
60964;SDS011;46834;51.100;6.886;2022-11-20T11:20:33;12.97;;;8.87;;
60964;SDS011;46834;51.100;6.886;2022-11-20T11:22:59;13.23;;;9.10;;
60964;SDS011;46834;51.100;6.886;2022-11-20T11:25:35;14.43;;;9.57;;
60964;SDS011;46834;51.100;6.886;2022-11-20T11:28:03;13.13;;;9.13;;
60964;SDS011;46834;51.100;6.886;2022-11-20T11:30:45;14.33;;;9.10;;
60964;SDS011;46834;51.100;6.886;2022-11-20T11:35:58;16.93;;;9.80;;
60964;SDS011;46834;51.100;6.886;2022-11-20T11:40:55;16.03;;;9.80;;
60964;SDS011;46834;51.100;6.886;2022-11-20T11:43:23;17.07;;;9.90;;
60964;SDS011;46834;51.100;6.886;2022-11-20T11:46:25;13.00;;;9.10;;
60964;SDS011;46834;51.100;6.886;2022-11-20T11:51:39;15.77;;;9.90;;
60964;SDS011;46834;51.100;6.886;2022-11-20T11:54:55;13.07;;;8.83;;
60964;SDS011;46834;51.100;6.886;2022-11-20T12:00:14;18.43;;;9.80;;
60964;SDS011;46834;51.100;6.886;2022-11-20T12:05:14;14.37;;;10.27;;
60964;SDS011;46834;51.100;6.886;2022-11-20T12:08:05;13.13;;;9.97;;
60964;SDS011;46834;51.100;6.886;2022-11-20T12:10:48;13.40;;;9.67;;
60964;SDS011;46834;51.100;6.886;2022-11-20T12:13:39;14.27;;;9.63;;
60964;SDS011;46834;51.100;6.886;2022-11-20T12:16:14;14.63;;;9.57;;
60964;SDS011;46834;51.100;6.886;2022-11-20T12:18:45;14.97;;;10.27;;
60964;SDS011;46834;51.100;6.886;2022-11-20T12:21:18;15.73;;;10.30;;
60964;SDS011;46834;51.100;6.886;2022-11-20T12:27:22;17.37;;;11.00;;
60964;SDS011;46834;51.100;6.886;2022-11-20T12:30:26;17.27;;;10.10;;
60964;SDS011;46834;51.100;6.886;2022-11-20T12:32:59;16.40;;;10.57;;
60964;SDS011;46834;51.100;6.886;2022-11-20T12:45:07;15.73;;;10.87;;
60964;SDS011;46834;51.100;6.886;2022-11-20T12:53:55;13.93;;;9.40;;
60964;SDS011;46834;51.100;6.886;2022-11-20T13:07:43;17.10;;;9.87;;
60964;SDS011;46834;51.100;6.886;2022-11-20T13:10:18;16.57;;;10.27;;
60964;SDS011;46834;51.100;6.886;2022-11-20T13:13:16;15.47;;;9.90;;
60964;SDS011;46834;51.100;6.886;2022-11-20T13:16:48;19.13;;;9.97;;
60964;SDS011;46834;51.100;6.886;2022-11-20T13:19:27;16.23;;;9.63;;
60964;SDS011;46834;51.100;6.886;2022-11-20T13:21:54;15.40;;;10.10;;
60964;SDS011;46834;51.100;6.886;2022-11-20T13:29:28;14.60;;;9.70;;
60964;SDS011;46834;51.100;6.886;2022-11-20T13:38:01;17.97;;;10.53;;
60964;SDS011;46834;51.100;6.886;2022-11-20T13:40:37;17.17;;;9.47;;
60964;SDS011;46834;51.100;6.886;2022-11-20T13:43:44;15.47;;;9.83;;
60964;SDS011;46834;51.100;6.886;2022-11-20T13:46:12;15.67;;;9.97;;
60964;SDS011;46834;51.100;6.886;2022-11-20T13:48:41;16.90;;;10.27;;
60964;SDS011;46834;51.100;6.886;2022-11-20T13:51:23;13.43;;;9.37;;
60964;SDS011;46834;51.100;6.886;2022-11-20T14:02:25;16.27;;;9.67;;
60964;SDS011;46834;51.100;6.886;2022-11-20T14:04:54;14.30;;;9.47;;
60964;SDS011;46834;51.100;6.886;2022-11-20T14:07:35;14.97;;;9.20;;
60964;SDS011;46834;51.100;6.886;2022-11-20T14:10:17;14.60;;;9.20;;
60964;SDS011;46834;51.100;6.886;2022-11-20T14:12:53;16.03;;;9.33;;
60964;SDS011;46834;51.100;6.886;2022-11-20T14:15:27;14.30;;;9.53;;
60964;SDS011;46834;51.100;6.886;2022-11-20T14:17:58;13.47;;;8.57;;
60964;SDS011;46834;51.100;6.886;2022-11-20T14:20:36;14.70;;;9.17;;
60964;SDS011;46834;51.100;6.886;2022-11-20T14:23:03;15.47;;;9.37;;
60964;SDS011;46834;51.100;6.886;2022-11-20T14:25:30;15.30;;;9.53;;
60964;SDS011;46834;51.100;6.886;2022-11-20T14:27:57;14.43;;;8.73;;
60964;SDS011;46834;51.100;6.886;2022-11-20T14:30:26;12.03;;;8.47;;
60964;SDS011;46834;51.100;6.886;2022-11-20T14:33:09;14.27;;;8.63;;
60964;SDS011;46834;51.100;6.886;2022-11-20T14:35:48;14.07;;;9.63;;
60964;SDS011;46834;51.100;6.886;2022-11-20T14:38:18;14.53;;;10.30;;
60964;SDS011;46834;51.100;6.886;2022-11-20T14:40:49;12.13;;;8.37;;
60964;SDS011;46834;51.100;6.886;2022-11-20T14:43:24;13.43;;;8.93;;
60964;SDS011;46834;51.100;6.886;2022-11-20T14:45:55;16.47;;;8.57;;
60964;SDS011;46834;51.100;6.886;2022-11-20T14:48:38;15.47;;;9.07;;
60964;SDS011;46834;51.100;6.886;2022-11-20T14:51:25;11.97;;;8.43;;
60964;SDS011;46834;51.100;6.886;2022-11-20T14:54:12;14.13;;;8.50;;
60964;SDS011;46834;51.100;6.886;2022-11-20T14:56:42;13.13;;;8.20;;
60964;SDS011;46834;51.100;6.886;2022-11-20T14:59:24;14.33;;;8.77;;
60964;SDS011;46834;51.100;6.886;2022-11-20T15:01:54;14.90;;;9.43;;
60964;SDS011;46834;51.100;6.886;2022-11-20T15:04:31;14.40;;;8.67;;
60964;SDS011;46834;51.100;6.886;2022-11-20T15:06:57;11.97;;;7.93;;
60964;SDS011;46834;51.100;6.886;2022-11-20T15:09:24;13.63;;;8.93;;
60964;SDS011;46834;51.100;6.886;2022-11-20T15:11:57;14.50;;;9.20;;
60964;SDS011;46834;51.100;6.886;2022-11-20T15:14:27;14.37;;;9.40;;
60964;SDS011;46834;51.100;6.886;2022-11-20T15:16:55;13.30;;;8.97;;
60964;SDS011;46834;51.100;6.886;2022-11-20T15:19:22;14.90;;;9.10;;
60964;SDS011;46834;51.100;6.886;2022-11-20T15:21:51;13.70;;;8.40;;
60964;SDS011;46834;51.100;6.886;2022-11-20T15:24:16;14.10;;;9.23;;
60964;SDS011;46834;51.100;6.886;2022-11-20T15:26:43;13.93;;;8.87;;
60964;SDS011;46834;51.100;6.886;2022-11-20T15:29:09;14.03;;;8.43;;
60964;SDS011;46834;51.100;6.886;2022-11-20T15:31:38;13.17;;;8.47;;
60964;SDS011;46834;51.100;6.886;2022-11-20T15:34:12;15.60;;;9.77;;
60964;SDS011;46834;51.100;6.886;2022-11-20T15:36:40;12.47;;;8.17;;
60964;SDS011;46834;51.100;6.886;2022-11-20T15:39:08;13.27;;;9.10;;
60964;SDS011;46834;51.100;6.886;2022-11-20T15:41:37;13.93;;;8.93;;
60964;SDS011;46834;51.100;6.886;2022-11-20T15:44:03;14.73;;;8.87;;
60964;SDS011;46834;51.100;6.886;2022-11-20T15:46:30;13.87;;;8.83;;
60964;SDS011;46834;51.100;6.886;2022-11-20T15:49:03;14.30;;;9.17;;
60964;SDS011;46834;51.100;6.886;2022-11-20T15:51:30;15.90;;;9.00;;
60964;SDS011;46834;51.100;6.886;2022-11-20T15:54:18;14.50;;;8.63;;
60964;SDS011;46834;51.100;6.886;2022-11-20T15:56:47;13.57;;;8.40;;
60964;SDS011;46834;51.100;6.886;2022-11-20T15:59:17;13.37;;;8.67;;
60964;SDS011;46834;51.100;6.886;2022-11-20T16:01:43;13.50;;;8.83;;
60964;SDS011;46834;51.100;6.886;2022-11-20T16:04:15;15.73;;;9.13;;
60964;SDS011;46834;51.100;6.886;2022-11-20T16:06:42;13.10;;;8.17;;
60964;SDS011;46834;51.100;6.886;2022-11-20T16:09:07;13.03;;;8.13;;
60964;SDS011;46834;51.100;6.886;2022-11-20T16:11:34;12.77;;;8.37;;
60964;SDS011;46834;51.100;6.886;2022-11-20T16:14:04;15.70;;;9.27;;
60964;SDS011;46834;51.100;6.886;2022-11-20T16:16:49;12.80;;;8.70;;
60964;SDS011;46834;51.100;6.886;2022-11-20T16:19:16;12.70;;;8.30;;
60964;SDS011;46834;51.100;6.886;2022-11-20T16:21:43;11.53;;;8.80;;
60964;SDS011;46834;51.100;6.886;2022-11-20T16:24:09;14.33;;;8.83;;
60964;SDS011;46834;51.100;6.886;2022-11-20T16:26:38;11.67;;;8.37;;
60964;SDS011;46834;51.100;6.886;2022-11-20T16:29:05;13.00;;;8.50;;
60964;SDS011;46834;51.100;6.886;2022-11-20T16:31:31;10.93;;;7.63;;